KSAR/SAR METAR and TAF weather

Enter ICAO airport designator
Station Type Date Time Source
KSAR METAR 2019/02/21 12:15 UTC NOAA

KSAR 211215Z AUTO 00000KT 10SM CLR M02/M02 A3018 RMK AO2 T10201020


Station Type Date Time Source
KSAR Decoded METAR 2019/02/21 12:15 UTC NOAA

Sparta, Sparta Community-Hunter Field Airport, IL, United States (KSAR) 38-08-56N 089-41-55W
Feb 21, 2019 - 07:15 AM EST / 2019.02.21 1215 UTC
Wind: Calm:0
Visibility: 10 mile(s):0
Sky conditions: clear
Temperature: 28.4 F (-2.0 C)
Dew Point: 28.4 F (-2.0 C)
Relative Humidity: 100%
Pressure (altimeter): 30.18 in. Hg (1022 hPa)
ob: KSAR 211215Z AUTO 00000KT 10SM CLR M02/M02 A3018 RMK AO2 T10201020
cycle: 12

Station Type Date Time Source
KSAR TAF UTC NOAA

Error!


Example: see airport list